Almozara, Spain
Current Conditions -  °F | °C
As of 11:00 AM on Wednesday 26 Nov 2014 (Local Time) from LEZG Reporting Station
Broken Clouds Broken Clouds  
Wind Chill: 13°   Ceiling: 800
Heat Index: 13°   Visibility: 6mi
Dew Point: 12°   Wind: 6mph
Humidity: 94%   Direction: 300°WNW
Pressure: 29.91"   Gusts: NA
Location:  41.66°N, 0.9°W
Report Text: LEZG 261000Z 30005KT 9999 BKN008 BKN013 13/12 Q1013
Loading
Personal Weather Stations






























Interactive Weather Map New forecast layout! Learn more

10-Day Weather Forecast

Advertisements
Track Severe Weather on mobile